Greenbrier, Indiana
Current Conditions -  °F | °C
As of 9:54 PM on Sunday 25 Jan 2015 (Local Time) from KEVV Reporting Station
Haze Haze  
Wind Chill: 28°   Ceiling: 500
Heat Index: 38°   Visibility: 4mi
Dew Point: 35°   Wind: 20mph
Humidity: 89%   Direction: 350°N
Pressure: 29.78"   Gusts: 29mph
Location:  38.0544°N, 87.2562°W
Report Text: KEVV 260354Z 35017G25KT 4SM BR OVC005 03/02 A2978 RMK AO2 SLP088 T00330017
Loading
Personal Weather Stations






























Interactive Weather Map New forecast layout! Learn more

10-Day Weather Forecast

Advertisements
Track Severe Weather on mobile